sensor_id;sensor_type;location;lat;lon;timestamp;temperature;humidity
37274;DHT22;23161;51.250;5.554;2024-02-14T00:01:05;8.00;99.90
37274;DHT22;23161;51.250;5.554;2024-02-14T00:02:38;8.00;99.90
37274;DHT22;23161;51.250;5.554;2024-02-14T00:04:08;8.00;99.90
37274;DHT22;23161;51.250;5.554;2024-02-14T00:05:40;8.00;99.90
37274;DHT22;23161;51.250;5.554;2024-02-14T00:07:11;8.00;99.90
37274;DHT22;23161;51.250;5.554;2024-02-14T00:08:42;8.00;99.90
37274;DHT22;23161;51.250;5.554;2024-02-14T00:10:13;8.00;99.90
37274;DHT22;23161;51.250;5.554;2024-02-14T00:11:44;8.00;99.90
37274;DHT22;23161;51.250;5.554;2024-02-14T00:13:14;8.00;99.90
37274;DHT22;23161;51.250;5.554;2024-02-14T00:14:48;8.00;99.90
37274;DHT22;23161;51.250;5.554;2024-02-14T00:16:19;8.00;99.90
37274;DHT22;23161;51.250;5.554;2024-02-14T00:17:50;8.00;99.90
37274;DHT22;23161;51.250;5.554;2024-02-14T00:19:21;8.00;99.90
37274;DHT22;23161;51.250;5.554;2024-02-14T00:20:51;8.00;99.90
37274;DHT22;23161;51.250;5.554;2024-02-14T00:22:23;8.00;99.90
37274;DHT22;23161;51.250;5.554;2024-02-14T00:23:54;8.10;99.90
37274;DHT22;23161;51.250;5.554;2024-02-14T00:25:25;8.10;99.90
37274;DHT22;23161;51.250;5.554;2024-02-14T00:26:56;8.10;99.90
37274;DHT22;23161;51.250;5.554;2024-02-14T00:28:27;8.10;99.90
37274;DHT22;23161;51.250;5.554;2024-02-14T00:29:58;8.10;99.90
37274;DHT22;23161;51.250;5.554;2024-02-14T00:31:29;8.10;99.90
37274;DHT22;23161;51.250;5.554;2024-02-14T00:33:00;8.10;99.90
37274;DHT22;23161;51.250;5.554;2024-02-14T00:34:31;8.20;99.90
37274;DHT22;23161;51.250;5.554;2024-02-14T00:36:02;8.10;99.90
37274;DHT22;23161;51.250;5.554;2024-02-14T00:37:33;8.20;99.90
37274;DHT22;23161;51.250;5.554;2024-02-14T00:39:05;8.20;99.90
37274;DHT22;23161;51.250;5.554;2024-02-14T00:40:39;8.20;99.90
37274;DHT22;23161;51.250;5.554;2024-02-14T00:42:10;8.20;99.90
37274;DHT22;23161;51.250;5.554;2024-02-14T00:43:41;8.20;99.90
37274;DHT22;23161;51.250;5.554;2024-02-14T00:45:12;8.20;99.90
37274;DHT22;23161;51.250;5.554;2024-02-14T00:46:43;8.20;99.90
37274;DHT22;23161;51.250;5.554;2024-02-14T00:48:14;8.30;99.90
37274;DHT22;23161;51.250;5.554;2024-02-14T00:49:45;8.30;99.90
37274;DHT22;23161;51.250;5.554;2024-02-14T00:51:16;8.30;99.90
37274;DHT22;23161;51.250;5.554;2024-02-14T00:52:47;8.30;99.90
37274;DHT22;23161;51.250;5.554;2024-02-14T00:54:18;8.30;99.90
37274;DHT22;23161;51.250;5.554;2024-02-14T00:55:48;8.40;99.90
37274;DHT22;23161;51.250;5.554;2024-02-14T00:57:19;8.40;99.90
37274;DHT22;23161;51.250;5.554;2024-02-14T00:58:50;8.40;99.90
37274;DHT22;23161;51.250;5.554;2024-02-14T01:00:21;8.40;99.90
37274;DHT22;23161;51.250;5.554;2024-02-14T01:01:52;8.40;99.90
37274;DHT22;23161;51.250;5.554;2024-02-14T01:03:23;8.40;99.90
37274;DHT22;23161;51.250;5.554;2024-02-14T01:04:54;8.50;99.90
37274;DHT22;23161;51.250;5.554;2024-02-14T01:06:25;8.50;99.90
37274;DHT22;23161;51.250;5.554;2024-02-14T01:07:57;8.50;99.90
37274;DHT22;23161;51.250;5.554;2024-02-14T01:09:28;8.50;99.90
37274;DHT22;23161;51.250;5.554;2024-02-14T01:10:59;8.60;99.90
37274;DHT22;23161;51.250;5.554;2024-02-14T01:12:29;8.60;99.90
37274;DHT22;23161;51.250;5.554;2024-02-14T01:14:00;8.60;99.90
37274;DHT22;23161;51.250;5.554;2024-02-14T01:15:32;8.60;99.90
37274;DHT22;23161;51.250;5.554;2024-02-14T01:17:04;8.60;99.90
37274;DHT22;23161;51.250;5.554;2024-02-14T01:18:35;8.60;99.90
37274;DHT22;23161;51.250;5.554;2024-02-14T01:20:06;8.70;99.90
37274;DHT22;23161;51.250;5.554;2024-02-14T01:21:40;8.70;99.90
37274;DHT22;23161;51.250;5.554;2024-02-14T01:23:11;8.70;99.90
37274;DHT22;23161;51.250;5.554;2024-02-14T01:24:42;8.70;99.90
37274;DHT22;23161;51.250;5.554;2024-02-14T01:26:13;8.70;99.90
37274;DHT22;23161;51.250;5.554;2024-02-14T01:27:45;8.80;99.90
37274;DHT22;23161;51.250;5.554;2024-02-14T01:29:16;8.80;99.90
37274;DHT22;23161;51.250;5.554;2024-02-14T01:30:47;8.80;99.90
37274;DHT22;23161;51.250;5.554;2024-02-14T01:32:18;8.80;99.90
37274;DHT22;23161;51.250;5.554;2024-02-14T01:33:48;8.90;99.90
37274;DHT22;23161;51.250;5.554;2024-02-14T01:35:19;8.90;99.90
37274;DHT22;23161;51.250;5.554;2024-02-14T01:36:50;8.90;99.90
37274;DHT22;23161;51.250;5.554;2024-02-14T01:38:21;8.90;99.90
37274;DHT22;23161;51.250;5.554;2024-02-14T01:39:52;8.90;99.90
37274;DHT22;23161;51.250;5.554;2024-02-14T01:41:23;9.00;99.90
37274;DHT22;23161;51.250;5.554;2024-02-14T01:42:53;9.00;99.90
37274;DHT22;23161;51.250;5.554;2024-02-14T01:44:26;9.00;99.90
37274;DHT22;23161;51.250;5.554;2024-02-14T01:46:04;9.00;99.90
37274;DHT22;23161;51.250;5.554;2024-02-14T01:47:35;9.00;99.90
37274;DHT22;23161;51.250;5.554;2024-02-14T01:49:06;9.00;99.90
37274;DHT22;23161;51.250;5.554;2024-02-14T01:50:37;9.00;99.90
37274;DHT22;23161;51.250;5.554;2024-02-14T01:52:09;9.00;99.90
37274;DHT22;23161;51.250;5.554;2024-02-14T01:53:40;9.00;99.90
37274;DHT22;23161;51.250;5.554;2024-02-14T01:55:12;9.10;99.90
37274;DHT22;23161;51.250;5.554;2024-02-14T01:56:43;9.10;99.90
37274;DHT22;23161;51.250;5.554;2024-02-14T01:58:15;9.10;99.90
37274;DHT22;23161;51.250;5.554;2024-02-14T01:59:47;9.10;99.90
37274;DHT22;23161;51.250;5.554;2024-02-14T02:01:21;9.00;99.90
37274;DHT22;23161;51.250;5.554;2024-02-14T02:02:51;9.10;99.90
37274;DHT22;23161;51.250;5.554;2024-02-14T02:04:24;9.10;99.90
37274;DHT22;23161;51.250;5.554;2024-02-14T02:05:55;9.00;99.90
37274;DHT22;23161;51.250;5.554;2024-02-14T02:07:28;9.00;99.90
37274;DHT22;23161;51.250;5.554;2024-02-14T02:09:00;9.00;99.90
37274;DHT22;23161;51.250;5.554;2024-02-14T02:10:31;8.90;99.90
37274;DHT22;23161;51.250;5.554;2024-02-14T02:12:02;8.90;99.90
37274;DHT22;23161;51.250;5.554;2024-02-14T02:13:37;8.80;99.90
37274;DHT22;23161;51.250;5.554;2024-02-14T02:15:09;8.80;99.90
37274;DHT22;23161;51.250;5.554;2024-02-14T02:16:45;8.80;99.90
37274;DHT22;23161;51.250;5.554;2024-02-14T02:18:16;8.80;99.90
37274;DHT22;23161;51.250;5.554;2024-02-14T02:19:47;8.80;99.90
37274;DHT22;23161;51.250;5.554;2024-02-14T02:21:18;8.70;99.90
37274;DHT22;23161;51.250;5.554;2024-02-14T02:22:53;8.70;99.90
37274;DHT22;23161;51.250;5.554;2024-02-14T02:24:25;8.70;99.90
37274;DHT22;23161;51.250;5.554;2024-02-14T02:25:55;8.70;99.90
37274;DHT22;23161;51.250;5.554;2024-02-14T02:27:27;8.70;99.90
37274;DHT22;23161;51.250;5.554;2024-02-14T02:28:58;8.70;99.90
37274;DHT22;23161;51.250;5.554;2024-02-14T02:30:30;8.60;99.90
37274;DHT22;23161;51.250;5.554;2024-02-14T02:32:01;8.60;99.90
37274;DHT22;23161;51.250;5.554;2024-02-14T02:33:32;8.60;99.90
37274;DHT22;23161;51.250;5.554;2024-02-14T02:35:02;8.60;99.90
37274;DHT22;23161;51.250;5.554;2024-02-14T02:36:33;8.60;99.90
37274;DHT22;23161;51.250;5.554;2024-02-14T02:38:05;8.60;99.90
37274;DHT22;23161;51.250;5.554;2024-02-14T02:39:36;8.60;99.90
37274;DHT22;23161;51.250;5.554;2024-02-14T02:41:07;8.60;99.90
37274;DHT22;23161;51.250;5.554;2024-02-14T02:42:38;8.60;99.90
37274;DHT22;23161;51.250;5.554;2024-02-14T02:44:09;8.60;99.90
37274;DHT22;23161;51.250;5.554;2024-02-14T02:45:40;8.70;99.90
37274;DHT22;23161;51.250;5.554;2024-02-14T02:47:10;8.70;99.90
37274;DHT22;23161;51.250;5.554;2024-02-14T02:48:43;8.70;99.90
37274;DHT22;23161;51.250;5.554;2024-02-14T02:50:14;8.70;99.90
37274;DHT22;23161;51.250;5.554;2024-02-14T02:51:44;8.70;99.90
37274;DHT22;23161;51.250;5.554;2024-02-14T02:53:16;8.70;99.90
37274;DHT22;23161;51.250;5.554;2024-02-14T02:54:47;8.70;99.90
37274;DHT22;23161;51.250;5.554;2024-02-14T02:56:18;8.70;99.90
37274;DHT22;23161;51.250;5.554;2024-02-14T02:57:49;8.80;99.90
37274;DHT22;23161;51.250;5.554;2024-02-14T02:59:20;8.80;99.90
37274;DHT22;23161;51.250;5.554;2024-02-14T03:00:52;8.80;99.90
37274;DHT22;23161;51.250;5.554;2024-02-14T03:02:26;8.90;99.90
37274;DHT22;23161;51.250;5.554;2024-02-14T03:03:56;8.90;99.90
37274;DHT22;23161;51.250;5.554;2024-02-14T03:05:29;8.90;99.90
37274;DHT22;23161;51.250;5.554;2024-02-14T03:07:02;8.90;99.90
37274;DHT22;23161;51.250;5.554;2024-02-14T03:08:37;8.90;99.90
37274;DHT22;23161;51.250;5.554;2024-02-14T03:10:08;9.00;99.90
37274;DHT22;23161;51.250;5.554;2024-02-14T03:11:39;9.00;99.90
37274;DHT22;23161;51.250;5.554;2024-02-14T03:13:10;9.00;99.90
37274;DHT22;23161;51.250;5.554;2024-02-14T03:14:42;9.00;99.90
37274;DHT22;23161;51.250;5.554;2024-02-14T03:16:15;9.00;99.90
37274;DHT22;23161;51.250;5.554;2024-02-14T03:17:47;9.00;99.90
37274;DHT22;23161;51.250;5.554;2024-02-14T03:19:19;9.00;99.90
37274;DHT22;23161;51.250;5.554;2024-02-14T03:20:50;9.10;99.90
37274;DHT22;23161;51.250;5.554;2024-02-14T03:22:20;9.10;99.90
37274;DHT22;23161;51.250;5.554;2024-02-14T03:23:51;9.10;99.90
37274;DHT22;23161;51.250;5.554;2024-02-14T03:25:24;9.10;99.90
37274;DHT22;23161;51.250;5.554;2024-02-14T03:26:56;9.10;99.90
37274;DHT22;23161;51.250;5.554;2024-02-14T03:28:27;9.10;99.90
37274;DHT22;23161;51.250;5.554;2024-02-14T03:29:58;9.20;99.90
37274;DHT22;23161;51.250;5.554;2024-02-14T03:31:33;9.20;99.90
37274;DHT22;23161;51.250;5.554;2024-02-14T03:33:05;9.10;99.90
37274;DHT22;23161;51.250;5.554;2024-02-14T03:34:35;9.20;99.90
37274;DHT22;23161;51.250;5.554;2024-02-14T03:36:06;9.20;99.90
37274;DHT22;23161;51.250;5.554;2024-02-14T03:37:42;9.20;99.90
37274;DHT22;23161;51.250;5.554;2024-02-14T03:39:14;9.20;99.90
37274;DHT22;23161;51.250;5.554;2024-02-14T03:40:47;9.20;99.90
37274;DHT22;23161;51.250;5.554;2024-02-14T03:42:18;9.20;99.90
37274;DHT22;23161;51.250;5.554;2024-02-14T03:43:50;9.20;99.90
37274;DHT22;23161;51.250;5.554;2024-02-14T03:45:23;9.30;99.90
37274;DHT22;23161;51.250;5.554;2024-02-14T03:46:54;9.30;99.90
37274;DHT22;23161;51.250;5.554;2024-02-14T03:48:25;9.30;99.90
37274;DHT22;23161;51.250;5.554;2024-02-14T03:49:56;9.30;99.90
37274;DHT22;23161;51.250;5.554;2024-02-14T03:51:27;9.30;99.90
37274;DHT22;23161;51.250;5.554;2024-02-14T03:52:57;9.30;99.90
37274;DHT22;23161;51.250;5.554;2024-02-14T03:54:28;9.30;99.90
37274;DHT22;23161;51.250;5.554;2024-02-14T03:55:59;9.30;99.90
37274;DHT22;23161;51.250;5.554;2024-02-14T03:57:30;9.30;99.90
37274;DHT22;23161;51.250;5.554;2024-02-14T03:59:01;9.30;99.90
37274;DHT22;23161;51.250;5.554;2024-02-14T04:00:38;9.30;99.90
37274;DHT22;23161;51.250;5.554;2024-02-14T04:02:08;9.30;99.90
37274;DHT22;23161;51.250;5.554;2024-02-14T04:03:40;9.30;99.90
37274;DHT22;23161;51.250;5.554;2024-02-14T04:05:11;9.30;99.90
37274;DHT22;23161;51.250;5.554;2024-02-14T04:06:41;9.30;99.90
37274;DHT22;23161;51.250;5.554;2024-02-14T04:08:13;9.30;99.90
37274;DHT22;23161;51.250;5.554;2024-02-14T04:09:44;9.30;99.90
37274;DHT22;23161;51.250;5.554;2024-02-14T04:11:15;9.30;99.90
37274;DHT22;23161;51.250;5.554;2024-02-14T04:12:46;9.40;99.90
37274;DHT22;23161;51.250;5.554;2024-02-14T04:14:17;9.30;99.90
37274;DHT22;23161;51.250;5.554;2024-02-14T04:15:48;9.30;99.90
37274;DHT22;23161;51.250;5.554;2024-02-14T04:17:19;9.30;99.90
37274;DHT22;23161;51.250;5.554;2024-02-14T04:18:49;9.30;99.90
37274;DHT22;23161;51.250;5.554;2024-02-14T04:20:20;9.30;99.90
37274;DHT22;23161;51.250;5.554;2024-02-14T04:21:51;9.30;99.90
37274;DHT22;23161;51.250;5.554;2024-02-14T04:23:22;9.30;99.90
37274;DHT22;23161;51.250;5.554;2024-02-14T04:24:53;9.30;99.90
37274;DHT22;23161;51.250;5.554;2024-02-14T04:26:24;9.20;99.90
37274;DHT22;23161;51.250;5.554;2024-02-14T04:27:55;9.20;99.90
37274;DHT22;23161;51.250;5.554;2024-02-14T04:29:26;9.20;99.90
37274;DHT22;23161;51.250;5.554;2024-02-14T04:30:58;9.20;99.90
37274;DHT22;23161;51.250;5.554;2024-02-14T04:32:29;9.20;99.90
37274;DHT22;23161;51.250;5.554;2024-02-14T04:34:00;9.10;99.90
37274;DHT22;23161;51.250;5.554;2024-02-14T04:35:31;9.10;99.90
37274;DHT22;23161;51.250;5.554;2024-02-14T04:37:02;9.10;99.90
37274;DHT22;23161;51.250;5.554;2024-02-14T04:38:41;9.10;99.90
37274;DHT22;23161;51.250;5.554;2024-02-14T04:40:12;9.10;99.90
37274;DHT22;23161;51.250;5.554;2024-02-14T04:41:43;9.10;99.90
37274;DHT22;23161;51.250;5.554;2024-02-14T04:43:14;9.10;99.90
37274;DHT22;23161;51.250;5.554;2024-02-14T04:44:44;9.10;99.90
37274;DHT22;23161;51.250;5.554;2024-02-14T04:46:16;9.10;99.90
37274;DHT22;23161;51.250;5.554;2024-02-14T04:47:47;9.10;99.90
37274;DHT22;23161;51.250;5.554;2024-02-14T04:49:19;9.10;99.90
37274;DHT22;23161;51.250;5.554;2024-02-14T04:50:50;9.10;99.90
37274;DHT22;23161;51.250;5.554;2024-02-14T04:52:21;9.10;99.90
37274;DHT22;23161;51.250;5.554;2024-02-14T04:53:52;9.10;99.90
37274;DHT22;23161;51.250;5.554;2024-02-14T04:55:22;9.10;99.90
37274;DHT22;23161;51.250;5.554;2024-02-14T04:56:53;9.20;99.90
37274;DHT22;23161;51.250;5.554;2024-02-14T04:58:25;9.10;99.90
37274;DHT22;23161;51.250;5.554;2024-02-14T04:59:57;9.20;99.90
37274;DHT22;23161;51.250;5.554;2024-02-14T05:01:28;9.10;99.90
37274;DHT22;23161;51.250;5.554;2024-02-14T05:02:59;9.20;99.90
37274;DHT22;23161;51.250;5.554;2024-02-14T05:04:29;9.20;99.90
37274;DHT22;23161;51.250;5.554;2024-02-14T05:06:02;9.20;99.90
37274;DHT22;23161;51.250;5.554;2024-02-14T05:07:33;9.20;99.90
37274;DHT22;23161;51.250;5.554;2024-02-14T05:09:05;9.20;99.90
37274;DHT22;23161;51.250;5.554;2024-02-14T05:10:36;9.20;99.90
37274;DHT22;23161;51.250;5.554;2024-02-14T05:12:07;9.20;99.90
37274;DHT22;23161;51.250;5.554;2024-02-14T05:13:41;9.20;99.90
37274;DHT22;23161;51.250;5.554;2024-02-14T05:15:12;9.20;99.90
37274;DHT22;23161;51.250;5.554;2024-02-14T05:16:43;9.20;99.90
37274;DHT22;23161;51.250;5.554;2024-02-14T05:18:15;9.20;99.90
37274;DHT22;23161;51.250;5.554;2024-02-14T05:19:47;9.10;99.90
37274;DHT22;23161;51.250;5.554;2024-02-14T05:21:20;9.10;99.90
37274;DHT22;23161;51.250;5.554;2024-02-14T05:22:52;9.10;99.90
37274;DHT22;23161;51.250;5.554;2024-02-14T05:24:23;9.10;99.90
37274;DHT22;23161;51.250;5.554;2024-02-14T05:25:54;9.10;99.90
37274;DHT22;23161;51.250;5.554;2024-02-14T05:27:24;9.10;99.90
37274;DHT22;23161;51.250;5.554;2024-02-14T05:28:56;9.10;99.90
37274;DHT22;23161;51.250;5.554;2024-02-14T05:30:27;9.10;99.90
37274;DHT22;23161;51.250;5.554;2024-02-14T05:31:58;9.20;99.90
37274;DHT22;23161;51.250;5.554;2024-02-14T05:33:29;9.20;99.90
37274;DHT22;23161;51.250;5.554;2024-02-14T05:34:59;9.20;99.90
37274;DHT22;23161;51.250;5.554;2024-02-14T05:36:30;9.20;99.90
37274;DHT22;23161;51.250;5.554;2024-02-14T05:38:01;9.20;99.90
37274;DHT22;23161;51.250;5.554;2024-02-14T05:39:32;9.20;99.90
37274;DHT22;23161;51.250;5.554;2024-02-14T05:41:02;9.20;99.90
37274;DHT22;23161;51.250;5.554;2024-02-14T05:42:33;9.20;99.90
37274;DHT22;23161;51.250;5.554;2024-02-14T05:44:04;9.20;99.90
37274;DHT22;23161;51.250;5.554;2024-02-14T05:45:36;9.20;99.90
37274;DHT22;23161;51.250;5.554;2024-02-14T05:47:06;9.20;99.90
37274;DHT22;23161;51.250;5.554;2024-02-14T05:48:39;9.20;99.90
37274;DHT22;23161;51.250;5.554;2024-02-14T05:50:10;9.20;99.90
37274;DHT22;23161;51.250;5.554;2024-02-14T05:51:41;9.20;99.90
37274;DHT22;23161;51.250;5.554;2024-02-14T05:53:12;9.20;99.90
37274;DHT22;23161;51.250;5.554;2024-02-14T05:54:43;9.30;99.90
37274;DHT22;23161;51.250;5.554;2024-02-14T05:56:14;9.30;99.90
37274;DHT22;23161;51.250;5.554;2024-02-14T05:57:45;9.30;99.90
37274;DHT22;23161;51.250;5.554;2024-02-14T05:59:16;9.20;99.90
37274;DHT22;23161;51.250;5.554;2024-02-14T06:00:47;9.30;99.90
37274;DHT22;23161;51.250;5.554;2024-02-14T06:02:18;9.40;99.90
37274;DHT22;23161;51.250;5.554;2024-02-14T06:03:48;9.30;99.90
37274;DHT22;23161;51.250;5.554;2024-02-14T06:05:19;9.30;99.90
37274;DHT22;23161;51.250;5.554;2024-02-14T06:06:50;9.30;99.90
37274;DHT22;23161;51.250;5.554;2024-02-14T06:08:22;9.30;99.90
37274;DHT22;23161;51.250;5.554;2024-02-14T06:09:54;9.40;99.90
37274;DHT22;23161;51.250;5.554;2024-02-14T06:11:25;9.40;99.90
37274;DHT22;23161;51.250;5.554;2024-02-14T06:12:56;9.40;99.90
37274;DHT22;23161;51.250;5.554;2024-02-14T06:14:27;9.40;99.90
37274;DHT22;23161;51.250;5.554;2024-02-14T06:15:59;9.50;99.90
37274;DHT22;23161;51.250;5.554;2024-02-14T06:17:30;9.50;99.90
37274;DHT22;23161;51.250;5.554;2024-02-14T06:19:01;9.50;99.90
37274;DHT22;23161;51.250;5.554;2024-02-14T06:20:35;9.50;99.90
37274;DHT22;23161;51.250;5.554;2024-02-14T06:22:05;9.50;99.90
37274;DHT22;23161;51.250;5.554;2024-02-14T06:23:36;9.40;99.90
37274;DHT22;23161;51.250;5.554;2024-02-14T06:25:08;9.40;99.90
37274;DHT22;23161;51.250;5.554;2024-02-14T06:26:39;9.40;99.90
37274;DHT22;23161;51.250;5.554;2024-02-14T06:28:10;9.40;99.90
37274;DHT22;23161;51.250;5.554;2024-02-14T06:29:44;9.40;99.90
37274;DHT22;23161;51.250;5.554;2024-02-14T06:31:15;9.40;99.90
37274;DHT22;23161;51.250;5.554;2024-02-14T06:32:46;9.40;99.90
37274;DHT22;23161;51.250;5.554;2024-02-14T06:34:16;9.40;99.90
37274;DHT22;23161;51.250;5.554;2024-02-14T06:35:47;9.40;99.90
37274;DHT22;23161;51.250;5.554;2024-02-14T06:37:18;9.40;99.90
37274;DHT22;23161;51.250;5.554;2024-02-14T06:38:49;9.50;99.90
37274;DHT22;23161;51.250;5.554;2024-02-14T06:40:21;9.50;99.90
37274;DHT22;23161;51.250;5.554;2024-02-14T06:41:52;9.50;99.90
37274;DHT22;23161;51.250;5.554;2024-02-14T06:43:23;9.60;99.90
37274;DHT22;23161;51.250;5.554;2024-02-14T06:44:54;9.60;99.90
37274;DHT22;23161;51.250;5.554;2024-02-14T06:46:26;9.60;99.90
37274;DHT22;23161;51.250;5.554;2024-02-14T06:47:56;9.60;99.90
37274;DHT22;23161;51.250;5.554;2024-02-14T06:49:28;9.60;99.90
37274;DHT22;23161;51.250;5.554;2024-02-14T06:50:58;9.60;99.90
37274;DHT22;23161;51.250;5.554;2024-02-14T06:52:29;9.60;99.90
37274;DHT22;23161;51.250;5.554;2024-02-14T06:54:00;9.60;99.90
37274;DHT22;23161;51.250;5.554;2024-02-14T06:55:31;9.60;99.90
37274;DHT22;23161;51.250;5.554;2024-02-14T06:57:02;9.60;99.90
37274;DHT22;23161;51.250;5.554;2024-02-14T06:58:33;9.60;99.90
37274;DHT22;23161;51.250;5.554;2024-02-14T07:00:05;9.60;99.90
37274;DHT22;23161;51.250;5.554;2024-02-14T07:01:36;9.60;99.90
37274;DHT22;23161;51.250;5.554;2024-02-14T07:03:07;9.50;99.90
37274;DHT22;23161;51.250;5.554;2024-02-14T07:04:38;9.60;99.90
37274;DHT22;23161;51.250;5.554;2024-02-14T07:06:09;9.50;99.90
37274;DHT22;23161;51.250;5.554;2024-02-14T07:07:41;9.50;99.90
37274;DHT22;23161;51.250;5.554;2024-02-14T07:09:12;9.50;99.90
37274;DHT22;23161;51.250;5.554;2024-02-14T07:10:42;9.50;99.90
37274;DHT22;23161;51.250;5.554;2024-02-14T07:12:13;9.50;99.90
37274;DHT22;23161;51.250;5.554;2024-02-14T07:13:44;9.50;99.90
37274;DHT22;23161;51.250;5.554;2024-02-14T07:15:16;9.50;99.90
37274;DHT22;23161;51.250;5.554;2024-02-14T07:16:47;9.50;99.90
37274;DHT22;23161;51.250;5.554;2024-02-14T07:18:18;9.50;99.90
37274;DHT22;23161;51.250;5.554;2024-02-14T07:19:51;9.50;99.90
37274;DHT22;23161;51.250;5.554;2024-02-14T07:21:22;9.50;99.90
37274;DHT22;23161;51.250;5.554;2024-02-14T07:22:53;9.50;99.90
37274;DHT22;23161;51.250;5.554;2024-02-14T07:24:24;9.50;99.90
37274;DHT22;23161;51.250;5.554;2024-02-14T07:25:54;9.50;99.90
37274;DHT22;23161;51.250;5.554;2024-02-14T07:27:25;9.60;99.90
37274;DHT22;23161;51.250;5.554;2024-02-14T07:28:57;9.50;99.90
37274;DHT22;23161;51.250;5.554;2024-02-14T07:30:30;9.60;99.90
37274;DHT22;23161;51.250;5.554;2024-02-14T07:32:02;9.60;99.90
37274;DHT22;23161;51.250;5.554;2024-02-14T07:33:33;9.60;99.90
37274;DHT22;23161;51.250;5.554;2024-02-14T07:35:04;9.60;99.90
37274;DHT22;23161;51.250;5.554;2024-02-14T07:36:35;9.60;99.90
37274;DHT22;23161;51.250;5.554;2024-02-14T07:38:06;9.60;99.90
37274;DHT22;23161;51.250;5.554;2024-02-14T07:39:37;9.60;99.90
37274;DHT22;23161;51.250;5.554;2024-02-14T07:41:08;9.60;99.90
37274;DHT22;23161;51.250;5.554;2024-02-14T07:42:39;9.70;99.90
37274;DHT22;23161;51.250;5.554;2024-02-14T07:44:10;9.70;99.90
37274;DHT22;23161;51.250;5.554;2024-02-14T07:45:41;9.70;99.90
37274;DHT22;23161;51.250;5.554;2024-02-14T07:47:12;9.80;99.90
37274;DHT22;23161;51.250;5.554;2024-02-14T07:48:42;9.80;99.90
37274;DHT22;23161;51.250;5.554;2024-02-14T07:50:14;9.90;99.90
37274;DHT22;23161;51.250;5.554;2024-02-14T07:51:45;9.90;99.90
37274;DHT22;23161;51.250;5.554;2024-02-14T07:53:16;9.90;99.90
37274;DHT22;23161;51.250;5.554;2024-02-14T07:54:47;9.90;99.90
37274;DHT22;23161;51.250;5.554;2024-02-14T07:56:21;10.00;99.90
37274;DHT22;23161;51.250;5.554;2024-02-14T07:57:52;10.00;99.90
37274;DHT22;23161;51.250;5.554;2024-02-14T07:59:24;10.00;99.90
37274;DHT22;23161;51.250;5.554;2024-02-14T08:00:55;10.00;99.90
37274;DHT22;23161;51.250;5.554;2024-02-14T08:02:25;10.00;99.90
37274;DHT22;23161;51.250;5.554;2024-02-14T08:03:58;10.00;99.90
37274;DHT22;23161;51.250;5.554;2024-02-14T08:05:29;10.10;99.90
37274;DHT22;23161;51.250;5.554;2024-02-14T08:06:59;10.10;99.90
37274;DHT22;23161;51.250;5.554;2024-02-14T08:08:31;10.10;99.90
37274;DHT22;23161;51.250;5.554;2024-02-14T08:10:02;10.10;99.90
37274;DHT22;23161;51.250;5.554;2024-02-14T08:11:32;10.10;99.90
37274;DHT22;23161;51.250;5.554;2024-02-14T08:13:03;10.10;99.90
37274;DHT22;23161;51.250;5.554;2024-02-14T08:14:34;10.10;99.90
37274;DHT22;23161;51.250;5.554;2024-02-14T08:16:06;10.10;99.90
37274;DHT22;23161;51.250;5.554;2024-02-14T08:17:37;10.10;99.90
37274;DHT22;23161;51.250;5.554;2024-02-14T08:19:08;10.10;99.90
37274;DHT22;23161;51.250;5.554;2024-02-14T08:20:39;10.10;99.90
37274;DHT22;23161;51.250;5.554;2024-02-14T08:22:11;10.10;99.90
37274;DHT22;23161;51.250;5.554;2024-02-14T08:23:42;10.20;99.90
37274;DHT22;23161;51.250;5.554;2024-02-14T08:25:13;10.20;99.90
37274;DHT22;23161;51.250;5.554;2024-02-14T08:26:44;10.20;99.90
37274;DHT22;23161;51.250;5.554;2024-02-14T08:28:15;10.20;99.90
37274;DHT22;23161;51.250;5.554;2024-02-14T08:29:48;10.20;99.90
37274;DHT22;23161;51.250;5.554;2024-02-14T08:31:20;10.20;99.90
37274;DHT22;23161;51.250;5.554;2024-02-14T08:32:51;10.30;99.90
37274;DHT22;23161;51.250;5.554;2024-02-14T08:34:21;10.30;99.90
37274;DHT22;23161;51.250;5.554;2024-02-14T08:35:55;10.30;99.90
37274;DHT22;23161;51.250;5.554;2024-02-14T08:37:27;10.40;99.90
37274;DHT22;23161;51.250;5.554;2024-02-14T08:38:59;10.40;99.90
37274;DHT22;23161;51.250;5.554;2024-02-14T08:40:30;10.50;99.90
37274;DHT22;23161;51.250;5.554;2024-02-14T08:42:00;10.50;99.90
37274;DHT22;23161;51.250;5.554;2024-02-14T08:43:38;10.70;99.90
37274;DHT22;23161;51.250;5.554;2024-02-14T08:45:09;10.60;99.90
37274;DHT22;23161;51.250;5.554;2024-02-14T08:46:40;10.70;99.90
37274;DHT22;23161;51.250;5.554;2024-02-14T08:48:15;10.70;99.90
37274;DHT22;23161;51.250;5.554;2024-02-14T08:49:46;10.70;99.90
37274;DHT22;23161;51.250;5.554;2024-02-14T08:51:17;10.70;99.90
37274;DHT22;23161;51.250;5.554;2024-02-14T08:52:51;10.70;99.90
37274;DHT22;23161;51.250;5.554;2024-02-14T08:54:21;10.80;99.90
37274;DHT22;23161;51.250;5.554;2024-02-14T08:55:53;10.80;99.90
37274;DHT22;23161;51.250;5.554;2024-02-14T08:57:24;10.80;99.90
37274;DHT22;23161;51.250;5.554;2024-02-14T08:58:56;10.80;99.90
37274;DHT22;23161;51.250;5.554;2024-02-14T09:00:27;10.90;99.90
37274;DHT22;23161;51.250;5.554;2024-02-14T09:01:58;10.90;99.90
37274;DHT22;23161;51.250;5.554;2024-02-14T09:03:29;10.90;99.90
37274;DHT22;23161;51.250;5.554;2024-02-14T09:05:01;11.00;99.90
37274;DHT22;23161;51.250;5.554;2024-02-14T09:06:34;10.90;99.90
37274;DHT22;23161;51.250;5.554;2024-02-14T09:08:05;11.00;99.90
37274;DHT22;23161;51.250;5.554;2024-02-14T09:09:36;11.00;99.90
37274;DHT22;23161;51.250;5.554;2024-02-14T09:11:08;10.90;99.90
37274;DHT22;23161;51.250;5.554;2024-02-14T09:12:39;10.90;99.90
37274;DHT22;23161;51.250;5.554;2024-02-14T09:14:14;10.90;99.90
37274;DHT22;23161;51.250;5.554;2024-02-14T09:15:45;10.90;99.90
37274;DHT22;23161;51.250;5.554;2024-02-14T09:17:15;10.90;99.90
37274;DHT22;23161;51.250;5.554;2024-02-14T09:18:46;10.90;99.90
37274;DHT22;23161;51.250;5.554;2024-02-14T09:20:17;10.90;99.90
37274;DHT22;23161;51.250;5.554;2024-02-14T09:21:51;11.00;99.90
37274;DHT22;23161;51.250;5.554;2024-02-14T09:23:21;11.00;99.90
37274;DHT22;23161;51.250;5.554;2024-02-14T09:24:53;11.00;99.90
37274;DHT22;23161;51.250;5.554;2024-02-14T09:26:24;10.90;99.90
37274;DHT22;23161;51.250;5.554;2024-02-14T09:27:55;10.90;99.90
37274;DHT22;23161;51.250;5.554;2024-02-14T09:29:26;11.00;99.90
37274;DHT22;23161;51.250;5.554;2024-02-14T09:30:57;11.00;99.90
37274;DHT22;23161;51.250;5.554;2024-02-14T09:32:28;10.90;99.90
37274;DHT22;23161;51.250;5.554;2024-02-14T09:33:58;11.00;99.90
37274;DHT22;23161;51.250;5.554;2024-02-14T09:35:29;11.00;99.90
37274;DHT22;23161;51.250;5.554;2024-02-14T09:37:00;11.00;99.90
37274;DHT22;23161;51.250;5.554;2024-02-14T09:38:31;11.00;99.90
37274;DHT22;23161;51.250;5.554;2024-02-14T09:41:37;11.10;99.90
37274;DHT22;23161;51.250;5.554;2024-02-14T09:44:51;11.20;99.90
37274;DHT22;23161;51.250;5.554;2024-02-14T09:46:26;11.30;99.90
37274;DHT22;23161;51.250;5.554;2024-02-14T09:47:58;11.40;99.90